sensor_id;sensor_type;location;lat;lon;timestamp;pressure;altitude;pressure_sealevel;temperature;humidity
47104;BME280;32853;52.164;5.400;2023-02-18T00:01:23;102107.13;;;12.90;100.00
47104;BME280;32853;52.164;5.400;2023-02-18T00:03:49;102086.09;;;12.61;100.00
47104;BME280;32853;52.164;5.400;2023-02-18T00:06:28;102101.41;;;12.76;100.00
47104;BME280;32853;52.164;5.400;2023-02-18T00:08:54;102051.25;;;12.56;100.00
47104;BME280;32853;52.164;5.400;2023-02-18T00:11:21;102054.69;;;12.58;100.00
47104;BME280;32853;52.164;5.400;2023-02-18T00:13:57;102106.31;;;12.88;100.00
47104;BME280;32853;52.164;5.400;2023-02-18T00:16:24;102101.56;;;13.01;100.00
47104;BME280;32853;52.164;5.400;2023-02-18T00:18:50;102099.16;;;12.93;100.00
47104;BME280;32853;52.164;5.400;2023-02-18T00:21:18;102097.25;;;12.98;100.00
47104;BME280;32853;52.164;5.400;2023-02-18T00:23:44;102057.50;;;12.81;100.00
47104;BME280;32853;52.164;5.400;2023-02-18T00:26:14;102062.81;;;12.79;100.00
47104;BME280;32853;52.164;5.400;2023-02-18T00:28:40;102084.88;;;13.02;100.00
47104;BME280;32853;52.164;5.400;2023-02-18T00:31:17;102071.00;;;12.98;100.00
47104;BME280;32853;52.164;5.400;2023-02-18T00:33:42;102061.84;;;12.82;100.00
47104;BME280;32853;52.164;5.400;2023-02-18T00:36:12;102073.84;;;12.91;100.00
47104;BME280;32853;52.164;5.400;2023-02-18T00:38:38;102076.47;;;12.91;100.00
47104;BME280;32853;52.164;5.400;2023-02-18T00:41:04;102081.72;;;12.91;100.00
47104;BME280;32853;52.164;5.400;2023-02-18T00:43:30;102082.78;;;12.84;100.00
47104;BME280;32853;52.164;5.400;2023-02-18T00:46:15;102078.59;;;12.78;100.00
47104;BME280;32853;52.164;5.400;2023-02-18T00:48:40;102077.25;;;12.63;100.00
47104;BME280;32853;52.164;5.400;2023-02-18T00:51:06;102045.97;;;12.57;100.00
47104;BME280;32853;52.164;5.400;2023-02-18T00:53:37;102071.03;;;12.67;100.00
47104;BME280;32853;52.164;5.400;2023-02-18T00:56:03;101970.38;;;12.09;100.00
47104;BME280;32853;52.164;5.400;2023-02-18T00:58:37;101983.66;;;12.03;100.00
47104;BME280;32853;52.164;5.400;2023-02-18T01:01:04;101936.91;;;11.88;100.00
47104;BME280;32853;52.164;5.400;2023-02-18T01:03:30;102004.25;;;12.17;100.00
47104;BME280;32853;52.164;5.400;2023-02-18T01:05:55;102057.47;;;12.53;100.00
47104;BME280;32853;52.164;5.400;2023-02-18T01:08:25;102065.91;;;12.63;100.00
47104;BME280;32853;52.164;5.400;2023-02-18T01:10:53;102050.66;;;12.46;100.00
47104;BME280;32853;52.164;5.400;2023-02-18T01:13:19;102034.44;;;12.32;100.00
47104;BME280;32853;52.164;5.400;2023-02-18T01:15:52;102022.09;;;12.35;100.00
47104;BME280;32853;52.164;5.400;2023-02-18T01:18:17;102013.72;;;12.23;100.00
47104;BME280;32853;52.164;5.400;2023-02-18T01:20:48;102061.25;;;12.41;100.00
47104;BME280;32853;52.164;5.400;2023-02-18T01:23:16;102053.38;;;12.41;100.00
47104;BME280;32853;52.164;5.400;2023-02-18T01:25:42;102057.31;;;12.27;100.00
47104;BME280;32853;52.164;5.400;2023-02-18T01:28:09;102008.09;;;12.04;100.00
47104;BME280;32853;52.164;5.400;2023-02-18T01:30:35;102045.91;;;12.28;100.00
47104;BME280;32853;52.164;5.400;2023-02-18T01:33:10;102039.03;;;12.24;100.00
47104;BME280;32853;52.164;5.400;2023-02-18T01:35:40;101973.75;;;11.48;100.00
47104;BME280;32853;52.164;5.400;2023-02-18T01:38:06;102010.69;;;11.71;100.00
47104;BME280;32853;52.164;5.400;2023-02-18T01:40:31;102043.38;;;11.92;100.00
47104;BME280;32853;52.164;5.400;2023-02-18T01:42:57;102048.88;;;12.15;100.00
47104;BME280;32853;52.164;5.400;2023-02-18T01:50:41;102027.78;;;12.18;100.00
47104;BME280;32853;52.164;5.400;2023-02-18T01:53:08;102026.16;;;12.14;100.00
47104;BME280;32853;52.164;5.400;2023-02-18T01:55:37;101961.59;;;11.79;100.00
47104;BME280;32853;52.164;5.400;2023-02-18T01:58:03;102026.03;;;12.19;100.00
47104;BME280;32853;52.164;5.400;2023-02-18T02:00:30;101995.44;;;11.88;100.00
47104;BME280;32853;52.164;5.400;2023-02-18T02:02:57;101980.38;;;11.61;100.00
47104;BME280;32853;52.164;5.400;2023-02-18T02:05:22;102018.72;;;11.99;100.00
47104;BME280;32853;52.164;5.400;2023-02-18T02:07:51;101986.38;;;12.00;100.00
47104;BME280;32853;52.164;5.400;2023-02-18T02:10:18;102009.00;;;12.03;100.00
47104;BME280;32853;52.164;5.400;2023-02-18T02:24:09;101951.41;;;11.67;100.00
47104;BME280;32853;52.164;5.400;2023-02-18T02:35:30;101942.41;;;12.10;100.00
47104;BME280;32853;52.164;5.400;2023-02-18T02:38:17;101927.88;;;11.98;100.00
47104;BME280;32853;52.164;5.400;2023-02-18T02:40:54;101907.75;;;11.99;100.00
47104;BME280;32853;52.164;5.400;2023-02-18T02:43:44;101908.38;;;12.07;100.00
47104;BME280;32853;52.164;5.400;2023-02-18T02:46:20;101885.88;;;12.00;100.00
47104;BME280;32853;52.164;5.400;2023-02-18T02:51:23;101894.34;;;12.08;100.00
47104;BME280;32853;52.164;5.400;2023-02-18T02:53:50;101896.09;;;12.09;100.00
47104;BME280;32853;52.164;5.400;2023-02-18T02:56:19;101889.13;;;12.08;100.00
47104;BME280;32853;52.164;5.400;2023-02-18T02:59:02;101880.28;;;12.12;100.00
47104;BME280;32853;52.164;5.400;2023-02-18T03:01:58;101879.53;;;12.07;100.00
47104;BME280;32853;52.164;5.400;2023-02-18T03:05:03;101877.00;;;12.04;100.00
47104;BME280;32853;52.164;5.400;2023-02-18T03:07:43;101867.59;;;11.97;100.00
47104;BME280;32853;52.164;5.400;2023-02-18T03:19:32;101859.94;;;12.18;100.00
47104;BME280;32853;52.164;5.400;2023-02-18T03:22:16;101849.19;;;12.28;100.00
47104;BME280;32853;52.164;5.400;2023-02-18T03:24:45;101816.06;;;11.96;100.00
47104;BME280;32853;52.164;5.400;2023-02-18T03:27:32;101832.44;;;12.04;100.00
47104;BME280;32853;52.164;5.400;2023-02-18T03:30:21;101826.72;;;12.19;100.00
47104;BME280;32853;52.164;5.400;2023-02-18T03:32:55;101807.66;;;12.14;100.00
47104;BME280;32853;52.164;5.400;2023-02-18T03:35:22;101830.25;;;12.18;100.00
47104;BME280;32853;52.164;5.400;2023-02-18T03:37:53;101811.13;;;12.14;100.00
47104;BME280;32853;52.164;5.400;2023-02-18T03:40:26;101773.09;;;12.01;100.00
47104;BME280;32853;52.164;5.400;2023-02-18T03:42:52;101808.34;;;12.19;100.00
47104;BME280;32853;52.164;5.400;2023-02-18T03:45:25;101799.41;;;12.26;100.00
47104;BME280;32853;52.164;5.400;2023-02-18T03:48:00;101662.81;;;11.50;100.00
47104;BME280;32853;52.164;5.400;2023-02-18T03:50:25;101749.31;;;11.78;100.00
47104;BME280;32853;52.164;5.400;2023-02-18T03:52:51;101791.00;;;12.15;100.00
47104;BME280;32853;52.164;5.400;2023-02-18T03:55:24;101764.16;;;12.07;100.00
47104;BME280;32853;52.164;5.400;2023-02-18T03:57:49;101781.09;;;12.25;100.00
47104;BME280;32853;52.164;5.400;2023-02-18T04:00:17;101751.50;;;12.21;100.00
47104;BME280;32853;52.164;5.400;2023-02-18T04:02:42;101729.50;;;11.99;100.00
47104;BME280;32853;52.164;5.400;2023-02-18T04:05:08;101695.06;;;11.81;100.00
47104;BME280;32853;52.164;5.400;2023-02-18T04:07:35;101761.09;;;12.22;100.00
47104;BME280;32853;52.164;5.400;2023-02-18T04:10:00;101732.25;;;11.94;100.00
47104;BME280;32853;52.164;5.400;2023-02-18T04:12:26;101648.13;;;11.46;100.00
47104;BME280;32853;52.164;5.400;2023-02-18T04:14:51;101765.75;;;12.39;100.00
47104;BME280;32853;52.164;5.400;2023-02-18T04:17:23;101754.13;;;12.47;100.00
47104;BME280;32853;52.164;5.400;2023-02-18T04:19:48;101736.13;;;12.37;100.00
47104;BME280;32853;52.164;5.400;2023-02-18T04:22:14;101736.22;;;12.34;100.00
47104;BME280;32853;52.164;5.400;2023-02-18T04:24:39;101710.94;;;12.31;100.00
47104;BME280;32853;52.164;5.400;2023-02-18T04:27:12;101721.28;;;12.36;100.00
47104;BME280;32853;52.164;5.400;2023-02-18T04:29:39;101718.72;;;12.34;100.00
47104;BME280;32853;52.164;5.400;2023-02-18T04:32:08;101737.47;;;12.48;100.00
47104;BME280;32853;52.164;5.400;2023-02-18T04:34:33;101702.53;;;12.21;100.00
47104;BME280;32853;52.164;5.400;2023-02-18T04:36:58;101694.56;;;11.97;100.00
47104;BME280;32853;52.164;5.400;2023-02-18T04:39:25;101705.38;;;12.14;100.00
47104;BME280;32853;52.164;5.400;2023-02-18T04:41:50;101692.28;;;12.14;100.00
47104;BME280;32853;52.164;5.400;2023-02-18T04:44:16;101601.38;;;11.60;100.00
47104;BME280;32853;52.164;5.400;2023-02-18T04:46:41;101543.34;;;11.18;100.00
47104;BME280;32853;52.164;5.400;2023-02-18T04:49:06;101687.38;;;12.03;100.00
47104;BME280;32853;52.164;5.400;2023-02-18T04:51:32;101676.72;;;12.09;100.00
47104;BME280;32853;52.164;5.400;2023-02-18T04:53:58;101687.09;;;12.12;100.00
47104;BME280;32853;52.164;5.400;2023-02-18T04:56:24;101707.44;;;12.04;100.00
47104;BME280;32853;52.164;5.400;2023-02-18T04:58:49;101629.19;;;11.92;100.00
47104;BME280;32853;52.164;5.400;2023-02-18T05:01:14;101689.63;;;12.40;100.00
47104;BME280;32853;52.164;5.400;2023-02-18T05:03:41;101608.09;;;11.69;100.00
47104;BME280;32853;52.164;5.400;2023-02-18T05:06:07;101694.56;;;12.25;100.00
47104;BME280;32853;52.164;5.400;2023-02-18T05:08:32;101688.16;;;12.33;100.00
47104;BME280;32853;52.164;5.400;2023-02-18T05:10:58;101698.59;;;12.35;100.00
47104;BME280;32853;52.164;5.400;2023-02-18T05:13:23;101693.38;;;12.07;100.00
47104;BME280;32853;52.164;5.400;2023-02-18T05:15:48;101692.03;;;12.21;100.00
47104;BME280;32853;52.164;5.400;2023-02-18T05:18:14;101700.66;;;11.99;100.00
47104;BME280;32853;52.164;5.400;2023-02-18T05:20:39;101695.09;;;12.08;100.00
47104;BME280;32853;52.164;5.400;2023-02-18T05:23:05;101693.13;;;12.14;100.00
47104;BME280;32853;52.164;5.400;2023-02-18T05:25:30;101684.53;;;12.11;100.00
47104;BME280;32853;52.164;5.400;2023-02-18T05:27:55;101668.34;;;11.98;100.00
47104;BME280;32853;52.164;5.400;2023-02-18T05:30:21;101672.22;;;12.13;100.00
47104;BME280;32853;52.164;5.400;2023-02-18T05:32:46;101675.25;;;12.01;100.00
47104;BME280;32853;52.164;5.400;2023-02-18T05:35:11;101675.84;;;12.09;100.00
47104;BME280;32853;52.164;5.400;2023-02-18T05:37:45;101659.84;;;12.16;100.00
47104;BME280;32853;52.164;5.400;2023-02-18T05:40:10;101671.50;;;12.34;100.00
47104;BME280;32853;52.164;5.400;2023-02-18T05:42:49;101656.91;;;12.26;100.00
47104;BME280;32853;52.164;5.400;2023-02-18T05:45:18;101652.94;;;12.14;100.00
47104;BME280;32853;52.164;5.400;2023-02-18T05:47:43;101641.25;;;12.24;100.00
47104;BME280;32853;52.164;5.400;2023-02-18T05:50:25;101637.41;;;12.34;100.00
47104;BME280;32853;52.164;5.400;2023-02-18T05:52:54;101645.25;;;12.09;100.00
47104;BME280;32853;52.164;5.400;2023-02-18T05:55:20;101660.41;;;12.26;100.00
47104;BME280;32853;52.164;5.400;2023-02-18T05:57:50;101651.84;;;12.21;100.00
47104;BME280;32853;52.164;5.400;2023-02-18T06:00:17;101588.16;;;11.91;100.00
47104;BME280;32853;52.164;5.400;2023-02-18T06:02:47;101592.25;;;12.00;100.00
47104;BME280;32853;52.164;5.400;2023-02-18T06:05:12;101648.03;;;12.30;100.00
47104;BME280;32853;52.164;5.400;2023-02-18T06:07:38;101612.94;;;12.07;100.00
47104;BME280;32853;52.164;5.400;2023-02-18T06:10:04;101582.38;;;11.81;100.00
47104;BME280;32853;52.164;5.400;2023-02-18T06:12:30;101650.03;;;12.23;100.00
47104;BME280;32853;52.164;5.400;2023-02-18T06:14:55;101651.00;;;12.20;100.00
47104;BME280;32853;52.164;5.400;2023-02-18T06:17:31;101588.84;;;11.98;100.00
47104;BME280;32853;52.164;5.400;2023-02-18T06:19:59;101655.88;;;12.05;100.00
47104;BME280;32853;52.164;5.400;2023-02-18T06:22:32;101651.84;;;12.46;100.00
47104;BME280;32853;52.164;5.400;2023-02-18T06:25:11;101611.31;;;12.30;100.00
47104;BME280;32853;52.164;5.400;2023-02-18T06:28:02;101657.78;;;12.51;100.00
47104;BME280;32853;52.164;5.400;2023-02-18T06:30:30;101639.31;;;12.29;100.00
47104;BME280;32853;52.164;5.400;2023-02-18T06:32:55;101638.63;;;12.24;100.00
47104;BME280;32853;52.164;5.400;2023-02-18T06:35:30;101632.69;;;12.44;100.00
47104;BME280;32853;52.164;5.400;2023-02-18T06:38:02;101592.16;;;12.03;100.00
47104;BME280;32853;52.164;5.400;2023-02-18T06:40:28;101617.22;;;12.11;100.00
47104;BME280;32853;52.164;5.400;2023-02-18T06:42:53;101654.38;;;12.49;100.00
47104;BME280;32853;52.164;5.400;2023-02-18T06:45:19;101664.44;;;12.36;100.00
47104;BME280;32853;52.164;5.400;2023-02-18T06:47:44;101612.94;;;12.09;100.00
47104;BME280;32853;52.164;5.400;2023-02-18T06:50:10;101628.59;;;12.10;100.00
47104;BME280;32853;52.164;5.400;2023-02-18T06:52:35;101660.59;;;12.46;100.00
47104;BME280;32853;52.164;5.400;2023-02-18T06:55:04;101654.69;;;12.40;100.00
47104;BME280;32853;52.164;5.400;2023-02-18T06:57:30;101621.91;;;12.27;100.00
47104;BME280;32853;52.164;5.400;2023-02-18T06:59:55;101657.59;;;12.32;100.00
47104;BME280;32853;52.164;5.400;2023-02-18T07:02:20;101626.72;;;12.14;100.00
47104;BME280;32853;52.164;5.400;2023-02-18T07:04:46;101647.69;;;12.14;100.00
47104;BME280;32853;52.164;5.400;2023-02-18T07:07:11;101641.59;;;12.13;100.00
47104;BME280;32853;52.164;5.400;2023-02-18T07:09:37;101640.22;;;12.28;100.00
47104;BME280;32853;52.164;5.400;2023-02-18T07:12:02;101648.13;;;12.53;100.00
47104;BME280;32853;52.164;5.400;2023-02-18T07:14:27;101646.31;;;12.29;100.00
47104;BME280;32853;52.164;5.400;2023-02-18T07:16:53;101607.16;;;12.24;100.00
47104;BME280;32853;52.164;5.400;2023-02-18T07:19:18;101594.34;;;12.15;100.00
47104;BME280;32853;52.164;5.400;2023-02-18T07:21:43;101626.53;;;11.93;100.00
47104;BME280;32853;52.164;5.400;2023-02-18T07:24:09;101648.78;;;12.08;100.00
47104;BME280;32853;52.164;5.400;2023-02-18T07:26:50;101652.28;;;12.07;100.00
47104;BME280;32853;52.164;5.400;2023-02-18T07:29:16;101628.53;;;11.85;100.00
47104;BME280;32853;52.164;5.400;2023-02-18T07:31:44;101652.34;;;12.06;100.00
47104;BME280;32853;52.164;5.400;2023-02-18T07:34:15;101639.22;;;12.06;100.00
47104;BME280;32853;52.164;5.400;2023-02-18T07:36:47;101604.69;;;11.93;100.00
47104;BME280;32853;52.164;5.400;2023-02-18T07:39:14;101619.66;;;12.16;100.00
47104;BME280;32853;52.164;5.400;2023-02-18T07:41:40;101613.81;;;12.08;100.00
47104;BME280;32853;52.164;5.400;2023-02-18T07:44:06;101623.84;;;12.21;100.00
47104;BME280;32853;52.164;5.400;2023-02-18T07:46:31;101618.56;;;12.23;100.00
47104;BME280;32853;52.164;5.400;2023-02-18T07:48:57;101609.47;;;12.07;100.00
47104;BME280;32853;52.164;5.400;2023-02-18T07:51:22;101565.84;;;11.79;100.00
47104;BME280;32853;52.164;5.400;2023-02-18T07:53:48;101599.63;;;11.88;100.00
47104;BME280;32853;52.164;5.400;2023-02-18T07:56:15;101589.59;;;12.01;100.00
47104;BME280;32853;52.164;5.400;2023-02-18T07:58:40;101628.00;;;12.27;100.00
47104;BME280;32853;52.164;5.400;2023-02-18T08:01:08;101570.00;;;11.58;100.00
47104;BME280;32853;52.164;5.400;2023-02-18T08:03:37;101567.59;;;11.51;100.00
47104;BME280;32853;52.164;5.400;2023-02-18T08:06:04;101663.38;;;12.15;100.00
47104;BME280;32853;52.164;5.400;2023-02-18T08:08:31;101602.69;;;11.73;100.00
47104;BME280;32853;52.164;5.400;2023-02-18T08:11:01;101662.25;;;11.98;100.00
47104;BME280;32853;52.164;5.400;2023-02-18T08:13:31;101640.19;;;12.03;100.00
47104;BME280;32853;52.164;5.400;2023-02-18T08:15:57;101648.94;;;11.74;100.00
47104;BME280;32853;52.164;5.400;2023-02-18T08:18:24;101643.16;;;11.92;100.00
47104;BME280;32853;52.164;5.400;2023-02-18T08:20:53;101631.38;;;11.79;100.00
47104;BME280;32853;52.164;5.400;2023-02-18T08:23:20;101652.44;;;12.03;100.00
47104;BME280;32853;52.164;5.400;2023-02-18T08:25:48;101653.06;;;12.11;100.00
47104;BME280;32853;52.164;5.400;2023-02-18T08:28:14;101619.47;;;11.96;100.00
47104;BME280;32853;52.164;5.400;2023-02-18T08:30:46;101677.34;;;12.16;100.00
47104;BME280;32853;52.164;5.400;2023-02-18T08:33:15;101679.34;;;12.08;100.00
47104;BME280;32853;52.164;5.400;2023-02-18T08:35:41;101684.63;;;11.80;100.00
47104;BME280;32853;52.164;5.400;2023-02-18T08:38:14;101515.88;;;11.03;100.00
47104;BME280;32853;52.164;5.400;2023-02-18T08:40:50;101552.63;;;11.00;100.00
47104;BME280;32853;52.164;5.400;2023-02-18T08:43:16;101623.78;;;11.13;100.00
47104;BME280;32853;52.164;5.400;2023-02-18T08:45:46;101677.31;;;11.61;100.00
47104;BME280;32853;52.164;5.400;2023-02-18T08:48:23;101605.69;;;11.34;100.00
47104;BME280;32853;52.164;5.400;2023-02-18T08:50:50;101665.22;;;11.85;100.00
47104;BME280;32853;52.164;5.400;2023-02-18T08:53:16;101486.53;;;10.64;100.00
47104;BME280;32853;52.164;5.400;2023-02-18T08:55:42;101535.44;;;10.91;100.00
47104;BME280;32853;52.164;5.400;2023-02-18T08:58:14;101645.13;;;11.58;100.00
47104;BME280;32853;52.164;5.400;2023-02-18T09:00:42;101649.44;;;11.59;100.00
47104;BME280;32853;52.164;5.400;2023-02-18T09:03:11;101675.88;;;11.81;100.00
47104;BME280;32853;52.164;5.400;2023-02-18T09:05:40;101659.88;;;11.60;100.00
47104;BME280;32853;52.164;5.400;2023-02-18T09:08:05;101578.50;;;11.11;100.00
47104;BME280;32853;52.164;5.400;2023-02-18T09:10:30;101583.88;;;11.04;100.00
47104;BME280;32853;52.164;5.400;2023-02-18T09:12:56;101625.56;;;11.40;100.00
47104;BME280;32853;52.164;5.400;2023-02-18T09:15:21;101641.22;;;11.42;100.00
47104;BME280;32853;52.164;5.400;2023-02-18T09:17:47;101450.44;;;10.16;100.00
47104;BME280;32853;52.164;5.400;2023-02-18T09:20:12;101656.94;;;11.43;100.00
47104;BME280;32853;52.164;5.400;2023-02-18T09:22:38;101684.94;;;11.69;100.00
47104;BME280;32853;52.164;5.400;2023-02-18T09:25:04;101600.19;;;11.14;100.00
47104;BME280;32853;52.164;5.400;2023-02-18T09:27:29;101600.38;;;11.36;100.00
47104;BME280;32853;52.164;5.400;2023-02-18T09:29:55;101675.03;;;11.79;100.00
47104;BME280;32853;52.164;5.400;2023-02-18T09:32:20;101677.34;;;11.89;100.00
47104;BME280;32853;52.164;5.400;2023-02-18T09:34:45;101694.25;;;11.79;100.00
47104;BME280;32853;52.164;5.400;2023-02-18T09:37:11;101637.25;;;11.58;100.00
47104;BME280;32853;52.164;5.400;2023-02-18T09:39:36;101695.69;;;11.89;100.00
47104;BME280;32853;52.164;5.400;2023-02-18T09:42:04;101701.13;;;11.83;100.00
47104;BME280;32853;52.164;5.400;2023-02-18T09:44:35;101708.75;;;11.91;100.00
47104;BME280;32853;52.164;5.400;2023-02-18T09:47:06;101627.13;;;11.74;100.00
47104;BME280;32853;52.164;5.400;2023-02-18T09:49:38;101707.94;;;11.89;100.00
47104;BME280;32853;52.164;5.400;2023-02-18T09:52:18;101640.44;;;11.68;100.00
47104;BME280;32853;52.164;5.400;2023-02-18T09:54:44;101705.56;;;12.09;100.00
47104;BME280;32853;52.164;5.400;2023-02-18T09:57:21;101711.38;;;11.91;100.00
47104;BME280;32853;52.164;5.400;2023-02-18T09:59:53;101658.88;;;11.64;100.00
47104;BME280;32853;52.164;5.400;2023-02-18T10:02:20;101649.78;;;11.76;100.00
47104;BME280;32853;52.164;5.400;2023-02-18T10:04:46;101707.94;;;11.89;100.00
47104;BME280;32853;52.164;5.400;2023-02-18T10:07:27;101710.22;;;12.26;100.00
47104;BME280;32853;52.164;5.400;2023-02-18T10:09:55;101713.19;;;12.15;100.00
47104;BME280;32853;52.164;5.400;2023-02-18T10:12:25;101703.16;;;12.02;100.00
47104;BME280;32853;52.164;5.400;2023-02-18T10:14:56;101685.97;;;11.93;100.00
47104;BME280;32853;52.164;5.400;2023-02-18T10:17:26;101621.16;;;11.70;100.00
47104;BME280;32853;52.164;5.400;2023-02-18T10:19:57;101676.84;;;12.05;100.00
47104;BME280;32853;52.164;5.400;2023-02-18T10:22:26;101632.97;;;11.83;100.00
47104;BME280;32853;52.164;5.400;2023-02-18T10:24:57;101698.28;;;12.17;100.00
47104;BME280;32853;52.164;5.400;2023-02-18T10:27:32;101725.44;;;12.43;100.00
47104;BME280;32853;52.164;5.400;2023-02-18T10:30:20;101693.34;;;12.08;100.00
47104;BME280;32853;52.164;5.400;2023-02-18T10:32:47;101704.59;;;12.63;100.00
47104;BME280;32853;52.164;5.400;2023-02-18T10:35:23;101704.31;;;12.46;100.00
47104;BME280;32853;52.164;5.400;2023-02-18T10:38:37;101697.59;;;12.64;100.00
47104;BME280;32853;52.164;5.400;2023-02-18T10:41:11;101734.72;;;12.78;100.00
47104;BME280;32853;52.164;5.400;2023-02-18T10:46:36;101623.66;;;11.73;100.00
47104;BME280;32853;52.164;5.400;2023-02-18T10:49:48;101740.47;;;12.89;100.00
47104;BME280;32853;52.164;5.400;2023-02-18T10:52:18;101751.97;;;12.85;100.00
47104;BME280;32853;52.164;5.400;2023-02-18T10:55:03;101741.03;;;12.72;100.00
47104;BME280;32853;52.164;5.400;2023-02-18T11:00:24;101727.47;;;12.85;100.00
47104;BME280;32853;52.164;5.400;2023-02-18T11:05:59;101680.59;;;12.49;100.00
47104;BME280;32853;52.164;5.400;2023-02-18T11:08:27;101724.41;;;12.97;100.00
47104;BME280;32853;52.164;5.400;2023-02-18T11:10:53;101720.13;;;12.69;100.00
47104;BME280;32853;52.164;5.400;2023-02-18T11:13:27;101685.16;;;12.44;100.00
47104;BME280;32853;52.164;5.400;2023-02-18T11:18:29;101703.38;;;12.73;100.00
47104;BME280;32853;52.164;5.400;2023-02-18T11:20:59;101679.91;;;12.69;100.00
47104;BME280;32853;52.164;5.400;2023-02-18T11:23:24;101725.69;;;12.85;100.00
47104;BME280;32853;52.164;5.400;2023-02-18T11:26:03;101722.50;;;12.77;100.00
47104;BME280;32853;52.164;5.400;2023-02-18T11:28:45;101725.94;;;12.79;100.00
47104;BME280;32853;52.164;5.400;2023-02-18T11:31:19;101748.22;;;12.67;100.00
47104;BME280;32853;52.164;5.400;2023-02-18T11:33:54;101726.47;;;12.64;100.00
47104;BME280;32853;52.164;5.400;2023-02-18T11:36:27;101745.34;;;12.75;100.00
47104;BME280;32853;52.164;5.400;2023-02-18T11:38:58;101746.19;;;12.75;100.00
47104;BME280;32853;52.164;5.400;2023-02-18T11:41:37;101744.13;;;12.59;100.00
47104;BME280;32853;52.164;5.400;2023-02-18T11:44:05;101686.03;;;12.44;100.00
47104;BME280;32853;52.164;5.400;2023-02-18T11:46:32;101743.22;;;12.60;100.00
47104;BME280;32853;52.164;5.400;2023-02-18T11:49:18;101719.41;;;12.39;100.00
47104;BME280;32853;52.164;5.400;2023-02-18T11:51:47;101696.59;;;12.41;100.00
47104;BME280;32853;52.164;5.400;2023-02-18T11:54:26;101723.13;;;12.84;100.00
47104;BME280;32853;52.164;5.400;2023-02-18T11:57:04;101605.00;;;11.84;100.00
47104;BME280;32853;52.164;5.400;2023-02-18T11:59:36;101743.56;;;12.75;100.00
47104;BME280;32853;52.164;5.400;2023-02-18T12:04:47;101681.56;;;12.71;100.00
47104;BME280;32853;52.164;5.400;2023-02-18T12:07:26;101720.25;;;12.91;100.00
47104;BME280;32853;52.164;5.400;2023-02-18T12:10:30;101727.00;;;12.73;100.00
47104;BME280;32853;52.164;5.400;2023-02-18T12:13:27;101740.38;;;13.16;100.00
47104;BME280;32853;52.164;5.400;2023-02-18T12:22:04;101736.28;;;13.08;100.00
47104;BME280;32853;52.164;5.400;2023-02-18T12:27:40;101725.16;;;13.25;100.00
47104;BME280;32853;52.164;5.400;2023-02-18T12:33:37;101728.13;;;13.40;100.00
47104;BME280;32853;52.164;5.400;2023-02-18T12:36:34;101722.16;;;13.36;100.00
47104;BME280;32853;52.164;5.400;2023-02-18T12:42:02;101718.38;;;13.66;100.00
47104;BME280;32853;52.164;5.400;2023-02-18T12:44:38;101717.56;;;13.41;100.00
47104;BME280;32853;52.164;5.400;2023-02-18T13:04:57;101724.50;;;13.89;100.00
47104;BME280;32853;52.164;5.400;2023-02-18T13:13:40;101752.28;;;13.73;100.00
47104;BME280;32853;52.164;5.400;2023-02-18T13:16:09;101742.13;;;14.09;100.00
47104;BME280;32853;52.164;5.400;2023-02-18T13:18:39;101703.44;;;13.22;100.00
47104;BME280;32853;52.164;5.400;2023-02-18T13:21:08;101754.59;;;13.58;100.00
47104;BME280;32853;52.164;5.400;2023-02-18T13:24:05;101746.50;;;13.63;100.00
47104;BME280;32853;52.164;5.400;2023-02-18T13:26:32;101713.22;;;13.40;100.00
47104;BME280;32853;52.164;5.400;2023-02-18T13:39:51;101752.25;;;13.96;100.00
47104;BME280;32853;52.164;5.400;2023-02-18T13:47:44;101753.41;;;13.89;100.00
47104;BME280;32853;52.164;5.400;2023-02-18T13:50:30;101742.47;;;13.78;100.00
47104;BME280;32853;52.164;5.400;2023-02-18T13:55:53;101768.09;;;14.16;100.00
47104;BME280;32853;52.164;5.400;2023-02-18T13:58:51;101752.88;;;14.03;100.00
47104;BME280;32853;52.164;5.400;2023-02-18T14:10:13;101764.75;;;14.35;100.00
47104;BME280;32853;52.164;5.400;2023-02-18T14:20:44;101768.66;;;14.03;100.00
47104;BME280;32853;52.164;5.400;2023-02-18T14:25:51;101769.09;;;14.14;100.00
47104;BME280;32853;52.164;5.400;2023-02-18T14:31:01;101780.16;;;14.00;100.00
47104;BME280;32853;52.164;5.400;2023-02-18T14:33:29;101758.50;;;13.93;100.00
47104;BME280;32853;52.164;5.400;2023-02-18T14:39:10;101773.72;;;14.29;100.00
47104;BME280;32853;52.164;5.400;2023-02-18T14:42:00;101774.03;;;14.00;100.00
47104;BME280;32853;52.164;5.400;2023-02-18T14:49:59;101761.91;;;13.95;100.00
47104;BME280;32853;52.164;5.400;2023-02-18T14:54:53;101768.28;;;14.12;100.00
47104;BME280;32853;52.164;5.400;2023-02-18T14:58:06;101792.69;;;14.15;100.00
47104;BME280;32853;52.164;5.400;2023-02-18T15:00:19;101785.84;;;14.11;100.00
47104;BME280;32853;52.164;5.400;2023-02-18T15:02:48;101712.28;;;13.43;100.00
47104;BME280;32853;52.164;5.400;2023-02-18T15:05:25;101775.28;;;14.13;100.00
47104;BME280;32853;52.164;5.400;2023-02-18T15:08:23;101780.72;;;14.30;100.00
47104;BME280;32853;52.164;5.400;2023-02-18T15:13:26;101761.06;;;14.17;100.00
47104;BME280;32853;52.164;5.400;2023-02-18T15:15:56;101715.06;;;13.83;100.00
47104;BME280;32853;52.164;5.400;2023-02-18T15:18:37;101792.09;;;14.09;100.00
47104;BME280;32853;52.164;5.400;2023-02-18T15:21:08;101750.53;;;13.95;100.00
47104;BME280;32853;52.164;5.400;2023-02-18T15:23:38;101774.13;;;14.20;100.00